Time;durP1;ratioP1;P1;durP2;ratioP2;P2;SDS_P1;SDS_P2;PMS_P1;PMS_P2;Temp;Humidity;BMP_temperature;BMP_pressure;BME280_temperature;BME280_humidity;BME280_pressure;Samples;Min_cycle;Max_cycle;Signal;HPM_P1;HPM_P2
2022/08/14 00:02:04;;;;;;;3.72;1.70;;;18.60;90.70;;;;;;5032064;28;20692;-57
2022/08/14 00:04:31;;;;;;;2.53;1.90;;;18.50;90.60;;;;;;5032028;28;20291;-57
2022/08/14 00:06:58;;;;;;;2.67;2.03;;;18.60;90.70;;;;;;5032720;28;20202;-58
2022/08/14 00:09:25;;;;;;;2.30;2.00;;;18.60;90.60;;;;;;5032873;28;20256;-58
2022/08/14 00:11:51;;;;;;;2.22;2.03;;;18.60;90.80;;;;;;5032359;28;20256;-57
2022/08/14 00:14:18;;;;;;;3.80;2.60;;;18.50;91.00;;;;;;5032101;28;20234;-57
2022/08/14 00:16:47;;;;;;;2.70;2.50;;;18.50;90.90;;;;;;5032283;28;20210;-57
2022/08/14 00:19:14;;;;;;;3.88;2.60;;;18.50;90.70;;;;;;5032076;28;20667;-58
2022/08/14 00:21:40;;;;;;;5.53;2.45;;;18.60;90.70;;;;;;5031922;28;20206;-57
2022/08/14 00:24:07;;;;;;;4.65;2.03;;;18.70;90.80;;;;;;5032124;28;20283;-57
2022/08/14 00:26:34;;;;;;;4.00;2.33;;;18.60;90.90;;;;;;5032019;28;20214;-57
2022/08/14 00:29:00;;;;;;;2.30;2.10;;;18.60;91.00;;;;;;5032223;28;20256;-57
2022/08/14 00:31:29;;;;;;;4.00;2.10;;;18.60;91.20;;;;;;5032457;28;20240;-57
2022/08/14 00:33:57;;;;;;;2.28;1.98;;;18.50;91.30;;;;;;5032561;28;20305;-56
2022/08/14 00:36:24;;;;;;;8.60;2.10;;;18.40;91.60;;;;;;5032494;28;20214;-56
2022/08/14 00:38:51;;;;;;;2.63;1.83;;;18.40;91.80;;;;;;5033159;28;20224;-57
2022/08/14 00:41:18;;;;;;;2.30;1.90;;;18.30;92.10;;;;;;5033270;28;20214;-57
2022/08/14 00:43:45;;;;;;;3.17;2.20;;;18.20;92.30;;;;;;5031820;28;20299;-58
2022/08/14 00:46:12;;;;;;;3.00;1.88;;;18.20;92.50;;;;;;5031849;28;20237;-57
2022/08/14 00:48:39;;;;;;;4.43;2.25;;;18.10;92.80;;;;;;5031671;28;20260;-58
2022/08/14 00:51:09;;;;;;;2.67;1.90;;;18.10;93.30;;;;;;5031878;28;20213;-58
2022/08/14 00:53:39;;;;;;;8.63;2.33;;;17.90;93.50;;;;;;5031559;28;20233;-57
2022/08/14 00:56:06;;;;;;;4.03;2.20;;;17.90;93.90;;;;;;5031797;28;20293;-57
2022/08/14 00:58:33;;;;;;;2.55;2.25;;;17.80;94.10;;;;;;5032050;28;20217;-59
2022/08/14 01:01:03;;;;;;;3.03;1.90;;;17.80;94.20;;;;;;5031873;28;20253;-57
2022/08/14 01:03:30;;;;;;;2.65;2.00;;;17.80;94.30;;;;;;5031297;28;20257;-57
2022/08/14 01:05:58;;;;;;;2.95;2.20;;;17.80;94.30;;;;;;5031854;28;20206;-56
2022/08/14 01:08:29;;;;;;;4.07;2.08;;;17.80;94.40;;;;;;5031757;28;20202;-57
2022/08/14 01:10:57;;;;;;;3.03;1.95;;;17.80;94.40;;;;;;5031562;28;20221;-57
2022/08/14 01:13:26;;;;;;;3.35;1.65;;;17.90;94.40;;;;;;5033783;28;20235;-57
2022/08/14 01:15:55;;;;;;;2.20;2.00;;;17.90;94.30;;;;;;5035196;28;20206;-57
2022/08/14 01:21:10;;;;;;;2.60;2.00;;;17.90;94.10;;;;;;5035269;28;20693;-57
2022/08/14 01:23:40;;;;;;;5.40;2.00;;;17.90;94.00;;;;;;5034976;28;20226;-57
2022/08/14 01:26:08;;;;;;;2.47;2.10;;;18.00;93.90;;;;;;5035167;28;20214;-57
2022/08/14 01:28:36;;;;;;;2.20;1.80;;;18.10;93.80;;;;;;5035227;28;20215;-57
2022/08/14 01:31:07;;;;;;;2.33;1.88;;;18.00;93.90;;;;;;5035109;28;20662;-57
2022/08/14 01:33:37;;;;;;;3.17;2.10;;;18.00;94.00;;;;;;5034885;28;20632;-58
2022/08/14 01:36:04;;;;;;;3.63;2.03;;;18.00;94.10;;;;;;5035104;28;20261;-56
2022/08/14 01:38:33;;;;;;;2.55;1.95;;;17.90;94.30;;;;;;5034946;28;20248;-56
2022/08/14 01:41:02;;;;;;;3.17;2.00;;;17.90;94.40;;;;;;5034766;28;20230;-57
2022/08/14 01:43:30;;;;;;;3.28;1.90;;;17.90;94.60;;;;;;5034658;28;20230;-57
2022/08/14 01:45:59;;;;;;;2.70;2.15;;;17.90;94.60;;;;;;5034897;28;20233;-57
2022/08/14 01:48:29;;;;;;;2.20;2.00;;;17.90;94.70;;;;;;5035304;28;20687;-57
2022/08/14 01:50:56;;;;;;;1.98;1.85;;;17.80;94.90;;;;;;5034743;28;20285;-57
2022/08/14 01:53:23;;;;;;;2.10;1.90;;;17.70;95.30;;;;;;5034543;28;20272;-59
2022/08/14 01:55:50;;;;;;;2.15;1.80;;;17.70;95.60;;;;;;5034765;28;20245;-58
2022/08/14 01:58:18;;;;;;;3.65;2.15;;;17.60;95.80;;;;;;5034681;28;20297;-57
2022/08/14 02:00:45;;;;;;;3.58;1.85;;;17.50;96.00;;;;;;5034572;28;20239;-57
2022/08/14 02:03:12;;;;;;;1.88;1.67;;;17.50;96.30;;;;;;5034486;28;20632;-57
2022/08/14 02:05:39;;;;;;;2.33;2.13;;;17.50;96.40;;;;;;5034351;28;20218;-57
2022/08/14 02:08:07;;;;;;;2.15;1.95;;;17.50;96.40;;;;;;5034471;28;20210;-57
2022/08/14 02:10:34;;;;;;;2.20;2.00;;;17.40;96.70;;;;;;5034496;28;20681;-56
2022/08/14 02:13:04;;;;;;;2.40;2.20;;;17.30;97.30;;;;;;5034329;28;20233;-56
2022/08/14 02:15:32;;;;;;;4.35;2.13;;;17.20;97.90;;;;;;5034043;28;20210;-56
2022/08/14 02:18:00;;;;;;;3.72;2.45;;;17.10;98.50;;;;;;5034272;28;20210;-56
2022/08/14 02:20:28;;;;;;;2.35;2.00;;;17.00;98.70;;;;;;5033989;28;20317;-57
2022/08/14 02:22:55;;;;;;;3.22;2.00;;;17.00;98.90;;;;;;5034607;28;20226;-56
2022/08/14 02:25:22;;;;;;;3.97;1.95;;;17.00;99.00;;;;;;5033448;28;20217;-56
2022/08/14 02:27:49;;;;;;;2.25;2.05;;;17.00;99.10;;;;;;5034095;28;20694;-57
2022/08/14 02:30:15;;;;;;;2.63;2.22;;;16.90;99.30;;;;;;5034241;28;20658;-58
2022/08/14 02:32:44;;;;;;;3.33;1.90;;;16.90;99.50;;;;;;5034117;28;20222;-57
2022/08/14 02:35:17;;;;;;;3.90;1.90;;;16.90;99.40;;;;;;5033780;28;20690;-57
2022/08/14 02:37:44;;;;;;;2.75;2.00;;;16.90;99.50;;;;;;5034158;28;20210;-57
2022/08/14 02:40:11;;;;;;;2.83;2.08;;;16.90;99.70;;;;;;5033898;28;20706;-58
2022/08/14 02:42:38;;;;;;;3.50;2.53;;;16.90;99.70;;;;;;5034279;28;20256;-56
2022/08/14 02:45:05;;;;;;;4.25;2.33;;;17.00;99.50;;;;;;5033757;28;20210;-57
2022/08/14 02:47:32;;;;;;;2.67;2.30;;;17.00;99.70;;;;;;5033667;28;20293;-56
2022/08/14 02:50:01;;;;;;;5.27;2.33;;;17.00;99.90;;;;;;5034291;28;20208;-58
2022/08/14 02:52:27;;;;;;;6.07;3.58;;;17.00;99.80;;;;;;5033743;28;20206;-57
2022/08/14 02:54:56;;;;;;;3.63;2.40;;;17.00;99.90;;;;;;5033958;28;20206;-57
2022/08/14 02:57:23;;;;;;;2.85;2.60;;;17.00;99.80;;;;;;5034228;28;20216;-57
2022/08/14 02:59:51;;;;;;;3.17;2.33;;;17.00;99.90;;;;;;5033238;28;20321;-57
2022/08/14 03:02:18;;;;;;;2.85;2.60;;;17.00;99.90;;;;;;5033143;28;20214;-57
2022/08/14 03:04:45;;;;;;;2.63;2.13;;;17.10;99.80;;;;;;5033330;28;20214;-57
2022/08/14 03:07:15;;;;;;;2.30;2.08;;;17.00;99.90;;;;;;5033474;28;20264;-57
2022/08/14 03:09:42;;;;;;;2.63;2.20;;;17.00;99.90;;;;;;5033197;28;20737;-57
2022/08/14 03:12:09;;;;;;;2.40;2.00;;;17.00;99.90;;;;;;5034008;28;20219;-57
2022/08/14 03:14:37;;;;;;;2.90;1.92;;;17.00;99.90;;;;;;5032764;28;20229;-57
2022/08/14 03:17:09;;;;;;;4.18;2.20;;;16.90;99.90;;;;;;5033103;28;20220;-57
2022/08/14 03:19:36;;;;;;;2.97;2.45;;;16.90;99.90;;;;;;5032973;28;20206;-57
2022/08/14 03:22:03;;;;;;;2.38;2.15;;;16.90;99.90;;;;;;5033223;28;20590;-57
2022/08/14 03:24:31;;;;;;;3.40;2.17;;;16.90;99.90;;;;;;5032725;28;20309;-57
2022/08/14 03:26:58;;;;;;;2.30;2.10;;;16.70;99.90;;;;;;5032994;28;20206;-57
2022/08/14 03:29:27;;;;;;;2.15;1.98;;;16.60;99.90;;;;;;5033023;28;20219;-57
2022/08/14 03:31:54;;;;;;;2.30;2.00;;;16.40;99.90;;;;;;5032980;28;20209;-57
2022/08/14 03:34:22;;;;;;;3.50;2.42;;;16.40;99.90;;;;;;5032618;28;20226;-57
2022/08/14 03:36:53;;;;;;;3.97;2.40;;;16.40;99.90;;;;;;5032778;28;20206;-57
2022/08/14 03:39:21;;;;;;;3.13;2.27;;;16.40;99.90;;;;;;5032750;28;20218;-57
2022/08/14 03:41:49;;;;;;;2.17;1.97;;;16.50;99.90;;;;;;5032489;28;20805;-58
2022/08/14 03:44:16;;;;;;;2.90;2.27;;;16.40;99.90;;;;;;5032356;28;20284;-57
2022/08/14 03:46:43;;;;;;;2.10;1.90;;;16.30;99.90;;;;;;5032729;28;20232;-58
2022/08/14 03:49:10;;;;;;;3.53;2.40;;;16.30;99.90;;;;;;5032826;28;20325;-58
2022/08/14 03:51:37;;;;;;;2.40;2.20;;;16.30;99.90;;;;;;5032514;28;20207;-57
2022/08/14 03:54:07;;;;;;;3.10;2.37;;;16.40;99.90;;;;;;5032090;28;20226;-57
2022/08/14 03:56:36;;;;;;;2.30;2.00;;;16.30;99.90;;;;;;5032588;28;20253;-57
2022/08/14 03:59:10;;;;;;;6.33;2.37;;;16.30;99.90;;;;;;5032227;28;20746;-56
2022/08/14 04:01:38;;;;;;;3.40;2.40;;;16.30;99.90;;;;;;5032399;28;20233;-57
2022/08/14 04:04:06;;;;;;;4.30;2.07;;;16.40;99.90;;;;;;5058222;22;20225;-58
2022/08/14 04:06:35;;;;;;;3.03;2.30;;;16.30;99.90;;;;;;5035876;28;20208;-58
2022/08/14 04:09:02;;;;;;;2.90;2.58;;;16.40;99.90;;;;;;5036294;28;20210;-58
2022/08/14 04:11:29;;;;;;;2.47;2.27;;;16.40;99.90;;;;;;5035883;28;20203;-58
2022/08/14 04:13:56;;;;;;;2.50;2.27;;;16.40;99.90;;;;;;5035630;28;20721;-58
2022/08/14 04:16:24;;;;;;;3.97;2.47;;;16.40;99.90;;;;;;5036198;28;20205;-58
2022/08/14 04:18:53;;;;;;;2.87;2.30;;;16.30;99.90;;;;;;5036433;28;20209;-58
2022/08/14 04:21:23;;;;;;;4.27;2.60;;;16.30;99.90;;;;;;5036120;28;20233;-58
2022/08/14 04:23:51;;;;;;;2.93;2.40;;;16.30;99.90;;;;;;5035900;28;20325;-58
2022/08/14 04:26:20;;;;;;;3.70;2.60;;;16.30;99.90;;;;;;5035690;28;20202;-58
2022/08/14 04:28:49;;;;;;;3.00;2.23;;;16.40;99.90;;;;;;5035578;28;20583;-58
2022/08/14 04:31:17;;;;;;;4.60;2.10;;;16.40;99.90;;;;;;5035694;28;20217;-59
2022/08/14 04:33:47;;;;;;;3.07;2.40;;;16.40;99.90;;;;;;5035374;28;20218;-58
2022/08/14 04:36:14;;;;;;;3.03;2.60;;;16.40;99.90;;;;;;5036329;28;20206;-58
2022/08/14 04:44:09;;;;;;;2.63;2.37;;;16.50;99.90;;;;;;5036166;28;20293;-58
2022/08/14 04:46:36;;;;;;;2.30;2.10;;;16.60;99.90;;;;;;5035952;28;20300;-58
2022/08/14 04:49:04;;;;;;;2.95;2.65;;;16.50;99.90;;;;;;5040045;28;20293;-59
2022/08/14 04:51:31;;;;;;;4.80;2.50;;;16.60;99.90;;;;;;5041001;28;20202;-59
2022/08/14 04:53:59;;;;;;;4.15;2.45;;;16.70;99.90;;;;;;5039895;28;20226;-59
2022/08/14 04:56:27;;;;;;;2.60;2.30;;;16.70;99.90;;;;;;5040985;28;20238;-59
2022/08/14 04:58:56;;;;;;;3.78;2.33;;;16.80;99.90;;;;;;5040393;28;20340;-58
2022/08/14 05:01:25;;;;;;;3.15;2.15;;;16.80;99.90;;;;;;5040404;28;20249;-58
2022/08/14 05:03:52;;;;;;;2.47;2.20;;;16.90;99.90;;;;;;5040239;28;20276;-59
2022/08/14 05:06:21;;;;;;;3.50;2.53;;;17.00;99.90;;;;;;5040014;28;20273;-58
2022/08/14 05:08:49;;;;;;;4.50;2.40;;;17.10;99.90;;;;;;5039847;28;20220;-59
2022/08/14 05:11:18;;;;;;;3.45;2.25;;;17.20;99.90;;;;;;5039594;28;20198;-59
2022/08/14 05:13:45;;;;;;;2.45;2.25;;;17.30;99.90;;;;;;5039561;28;20321;-58
2022/08/14 05:16:13;;;;;;;2.42;2.20;;;17.40;99.90;;;;;;5039009;28;20210;-59
2022/08/14 05:18:40;;;;;;;3.00;2.20;;;17.60;99.90;;;;;;5039566;28;20289;-59
2022/08/14 05:21:08;;;;;;;3.67;2.45;;;17.70;99.90;;;;;;5038281;28;20234;-59
2022/08/14 05:23:38;;;;;;;3.08;2.20;;;17.90;99.90;;;;;;5037762;28;20293;-59
2022/08/14 05:26:11;;;;;;;3.85;3.53;;;18.10;99.90;;;;;;5039274;28;20202;-59
2022/08/14 05:28:43;;;;;;;11.20;8.52;;;18.30;99.90;;;;;;5039509;28;20213;-58
2022/08/14 05:31:11;;;;;;;2.95;2.47;;;18.40;99.90;;;;;;5038444;28;20736;-59
2022/08/14 05:33:38;;;;;;;3.00;2.50;;;18.50;99.60;;;;;;5038756;28;20272;-60
2022/08/14 05:36:08;;;;;;;2.50;2.28;;;18.50;99.70;;;;;;5037560;28;20245;-59
2022/08/14 05:38:38;;;;;;;3.33;2.20;;;18.50;99.50;;;;;;5037754;28;20206;-59
2022/08/14 05:41:08;;;;;;;5.95;2.80;;;18.60;99.20;;;;;;5037183;28;20222;-60
2022/08/14 05:43:35;;;;;;;4.18;2.60;;;18.90;99.10;;;;;;5037173;28;20686;-60
2022/08/14 05:46:02;;;;;;;3.08;2.38;;;19.90;97.50;;;;;;5037465;28;20275;-60
2022/08/14 05:48:30;;;;;;;2.80;2.40;;;21.70;94.90;;;;;;5037428;28;20206;-60
2022/08/14 05:50:57;;;;;;;3.92;2.10;;;23.70;89.70;;;;;;5036542;28;20202;-59
2022/08/14 05:53:26;;;;;;;3.10;2.40;;;24.60;83.00;;;;;;5037243;28;20230;-60
2022/08/14 05:55:55;;;;;;;6.00;2.30;;;25.90;78.30;;;;;;5036790;28;20207;-60
2022/08/14 05:58:22;;;;;;;3.85;2.67;;;27.50;71.80;;;;;;5037332;28;20207;-60
2022/08/14 06:00:49;;;;;;;2.97;1.98;;;29.20;66.20;;;;;;5037163;28;20584;-60
2022/08/14 06:03:19;;;;;;;3.60;2.10;;;30.40;59.30;;;;;;5036609;28;20296;-60
2022/08/14 06:05:47;;;;;;;3.35;2.50;;;30.60;57.80;;;;;;5036559;28;20650;-60
2022/08/14 06:08:18;;;;;;;5.18;1.92;;;30.50;57.80;;;;;;5036935;28;20217;-61
2022/08/14 06:10:45;;;;;;;3.88;2.38;;;31.10;55.90;;;;;;5037090;28;20206;-60
2022/08/14 06:13:15;;;;;;;2.60;2.10;;;31.70;54.80;;;;;;5036786;28;20772;-60
2022/08/14 06:15:42;;;;;;;5.40;2.20;;;32.70;52.80;;;;;;5036569;28;20233;-60
2022/08/14 06:18:10;;;;;;;6.30;2.20;;;32.70;51.60;;;;;;5037600;28;20297;-60
2022/08/14 06:20:38;;;;;;;3.50;2.00;;;32.30;52.50;;;;;;5036769;28;20586;-60
2022/08/14 06:23:05;;;;;;;3.85;2.10;;;32.80;51.20;;;;;;5034987;28;20226;-63
2022/08/14 06:25:32;;;;;;;2.42;1.95;;;33.90;49.90;;;;;;5034302;28;20202;-62
2022/08/14 06:27:59;;;;;;;1.90;1.70;;;34.80;47.60;;;;;;5034579;28;20621;-62
2022/08/14 06:30:30;;;;;;;3.50;2.08;;;35.10;46.20;;;;;;5034296;28;20697;-60
2022/08/14 06:32:57;;;;;;;2.95;1.90;;;35.50;46.50;;;;;;5034535;28;20554;-63
2022/08/14 06:35:24;;;;;;;3.67;1.80;;;36.10;45.30;;;;;;5034451;28;20241;-61
2022/08/14 06:37:52;;;;;;;3.28;1.98;;;36.90;44.50;;;;;;5034182;28;20209;-58
2022/08/14 06:40:21;;;;;;;2.22;2.00;;;38.10;43.10;;;;;;5034026;28;20700;-58
2022/08/14 06:42:48;;;;;;;4.25;2.08;;;39.00;42.00;;;;;;5033938;28;20682;-58
2022/08/14 06:45:16;;;;;;;3.05;1.73;;;39.70;39.70;;;;;;5034059;28;20210;-59
2022/08/14 06:47:47;;;;;;;2.08;1.75;;;39.50;40.30;;;;;;5034192;28;20202;-59
2022/08/14 06:50:16;;;;;;;3.83;1.60;;;39.60;39.60;;;;;;5034106;28;20202;-59
2022/08/14 06:52:44;;;;;;;2.15;1.98;;;39.70;39.10;;;;;;5034163;28;20670;-59
2022/08/14 06:55:12;;;;;;;2.00;1.80;;;39.90;38.80;;;;;;5034016;28;20720;-59
2022/08/14 06:57:42;;;;;;;2.25;2.05;;;40.00;38.40;;;;;;5033842;28;20294;-59
2022/08/14 07:00:11;;;;;;;2.15;1.88;;;40.10;38.50;;;;;;5034103;28;20293;-59
2022/08/14 07:08:14;;;;;;;1.60;1.50;;;40.70;37.50;;;;;;5033604;28;20216;-60
2022/08/14 07:10:42;;;;;;;3.72;1.73;;;40.90;37.30;;;;;;5033846;28;20301;-57
2022/08/14 07:13:10;;;;;;;1.92;1.65;;;41.00;37.10;;;;;;5033291;28;20720;-59
2022/08/14 07:15:37;;;;;;;2.65;1.55;;;40.70;37.60;;;;;;5033121;28;20575;-57
2022/08/14 07:18:05;;;;;;;1.88;1.77;;;40.90;36.70;;;;;;5033307;28;20210;-59
2022/08/14 07:20:34;;;;;;;4.15;1.70;;;41.50;35.80;;;;;;5033319;28;20272;-58
2022/08/14 07:23:01;;;;;;;2.10;1.60;;;41.90;35.30;;;;;;5033558;28;20206;-59
2022/08/14 07:25:28;;;;;;;5.25;1.80;;;42.30;34.60;;;;;;5033204;28;20215;-57
2022/08/14 07:27:56;;;;;;;2.55;1.40;;;42.40;34.50;;;;;;5033565;28;20618;-58
2022/08/14 07:30:23;;;;;;;2.85;1.92;;;42.40;34.50;;;;;;5033145;28;20671;-58
2022/08/14 07:32:51;;;;;;;1.92;1.60;;;42.60;34.10;;;;;;5033164;28;20197;-58
2022/08/14 07:35:18;;;;;;;3.97;1.50;;;42.70;33.60;;;;;;5033207;28;20583;-58
2022/08/14 07:37:49;;;;;;;2.05;1.70;;;42.80;33.60;;;;;;5032888;28;20702;-58
2022/08/14 07:40:16;;;;;;;2.80;1.40;;;42.90;33.20;;;;;;5033032;28;20205;-58
2022/08/14 07:42:43;;;;;;;3.25;1.60;;;42.70;33.60;;;;;;5033014;28;20226;-58
2022/08/14 07:45:12;;;;;;;2.35;1.50;;;42.40;33.40;;;;;;5032631;28;20217;-58
2022/08/14 07:47:42;;;;;;;1.38;1.23;;;42.40;33.70;;;;;;5032788;28;20262;-58
2022/08/14 07:50:14;;;;;;;3.25;1.55;;;42.50;33.30;;;;;;5032767;28;20202;-58
2022/08/14 07:52:42;;;;;;;1.98;1.50;;;42.50;33.40;;;;;;5033062;28;20296;-58
2022/08/14 07:55:11;;;;;;;3.05;1.38;;;42.60;33.20;;;;;;5032921;28;20232;-59
2022/08/14 07:57:39;;;;;;;1.92;1.20;;;42.80;32.80;;;;;;5032888;28;20640;-58
2022/08/14 08:00:10;;;;;;;2.13;1.58;;;42.70;32.60;;;;;;5032973;28;20202;-58
2022/08/14 08:02:39;;;;;;;2.90;1.50;;;42.50;33.90;;;;;;5033135;28;20515;-58
2022/08/14 08:05:07;;;;;;;2.42;1.40;;;42.60;33.90;;;;;;5032475;28;20247;-58
2022/08/14 08:07:35;;;;;;;1.98;1.42;;;43.10;33.50;;;;;;5033001;28;20209;-58
2022/08/14 08:10:29;;;;;;;2.65;1.50;;;42.70;33.50;;;;;;5032823;28;20260;-59
2022/08/14 08:12:55;;;;;;;1.55;1.33;;;42.80;33.50;;;;;;5032620;28;20201;-58
2022/08/14 08:15:23;;;;;;;4.30;2.00;;;43.50;32.10;;;;;;5032818;28;20205;-58
2022/08/14 08:17:50;;;;;;;1.63;1.52;;;44.00;32.40;;;;;;5033374;28;20213;-59
2022/08/14 08:20:18;;;;;;;1.88;1.50;;;44.50;32.40;;;;;;5033957;28;20236;-59
2022/08/14 08:22:45;;;;;;;2.97;1.55;;;45.10;32.20;;;;;;5033212;28;20226;-58
2022/08/14 08:25:12;;;;;;;3.05;1.60;;;45.60;31.80;;;;;;5033997;28;20205;-59
2022/08/14 08:27:39;;;;;;;2.53;1.58;;;45.90;31.30;;;;;;5034278;28;20210;-58
2022/08/14 08:30:09;;;;;;;1.80;1.42;;;45.90;31.00;;;;;;5034607;28;20268;-59
2022/08/14 08:32:41;;;;;;;2.53;1.58;;;45.30;30.40;;;;;;5035009;28;20210;-58
2022/08/14 08:35:16;;;;;;;4.15;1.42;;;44.20;30.70;;;;;;5034485;28;20256;-59
2022/08/14 08:37:43;;;;;;;2.33;1.30;;;42.30;32.30;;;;;;5034587;28;20216;-58
2022/08/14 08:40:11;;;;;;;1.60;1.50;;;40.30;34.30;;;;;;5034389;28;20351;-58
2022/08/14 08:42:38;;;;;;;1.58;1.42;;;38.50;36.00;;;;;;5034504;28;20234;-58
2022/08/14 08:45:08;;;;;;;1.80;1.63;;;36.70;37.70;;;;;;5033137;28;20730;-58
2022/08/14 08:47:39;;;;;;;3.53;1.67;;;35.30;39.20;;;;;;5033689;28;20214;-58
2022/08/14 08:50:19;;;;;;;1.95;1.60;;;34.10;40.90;;;;;;5032552;28;20276;-57
2022/08/14 08:52:49;;;;;;;2.17;1.50;;;32.90;42.00;;;;;;5033254;28;20202;-57
2022/08/14 08:55:16;;;;;;;2.03;1.52;;;31.90;43.70;;;;;;5032713;28;20206;-57
2022/08/14 08:57:43;;;;;;;3.75;1.85;;;31.30;44.70;;;;;;5032173;28;20206;-57
2022/08/14 09:00:17;;;;;;;2.00;1.80;;;30.80;45.10;;;;;;5032402;28;20202;-57
2022/08/14 09:02:56;;;;;;;2.08;1.80;;;30.50;46.20;;;;;;5031781;28;20225;-57
2022/08/14 09:05:23;;;;;;;2.90;1.95;;;30.30;46.80;;;;;;5031799;28;20277;-58
2022/08/14 09:07:50;;;;;;;3.28;1.98;;;30.10;47.30;;;;;;5031834;28;20214;-57
2022/08/14 09:10:18;;;;;;;2.25;1.80;;;29.80;47.50;;;;;;5032008;28;20206;-57
2022/08/14 09:12:45;;;;;;;6.20;1.90;;;29.60;47.60;;;;;;5032113;28;20229;-58
2022/08/14 09:15:12;;;;;;;1.70;1.60;;;29.50;47.90;;;;;;5031619;28;20209;-57
2022/08/14 09:17:42;;;;;;;2.70;1.85;;;29.50;48.10;;;;;;5031690;28;20207;-57
2022/08/14 09:20:09;;;;;;;3.53;1.80;;;29.50;48.50;;;;;;5031934;28;20206;-57
2022/08/14 09:22:36;;;;;;;2.72;2.00;;;29.50;48.20;;;;;;5031766;28;20229;-57
2022/08/14 09:25:05;;;;;;;1.88;1.77;;;29.60;48.80;;;;;;5031393;28;20230;-58
2022/08/14 09:27:32;;;;;;;2.72;1.80;;;29.60;48.30;;;;;;5031525;28;20214;-57
2022/08/14 09:29:59;;;;;;;3.15;2.10;;;29.70;48.30;;;;;;5031772;28;20661;-57
2022/08/14 09:32:35;;;;;;;2.05;1.83;;;29.80;48.20;;;;;;5031770;28;20203;-58
2022/08/14 09:35:15;;;;;;;3.60;1.92;;;29.90;48.00;;;;;;5034728;28;20236;-57
2022/08/14 09:37:54;;;;;;;2.20;2.00;;;30.00;48.20;;;;;;5035207;28;20214;-57
2022/08/14 09:40:42;;;;;;;3.00;2.03;;;30.00;47.90;;;;;;5035109;28;20669;-57
2022/08/14 09:43:21;;;;;;;2.58;2.10;;;29.90;48.10;;;;;;5035143;28;20242;-57
2022/08/14 09:45:50;;;;;;;3.33;2.15;;;29.70;48.50;;;;;;5035160;28;20206;-57
2022/08/14 09:48:18;;;;;;;3.65;2.30;;;29.80;48.20;;;;;;5035064;28;20210;-57
2022/08/14 09:50:48;;;;;;;2.22;2.03;;;29.80;48.40;;;;;;5034858;28;20672;-56
2022/08/14 09:53:18;;;;;;;2.28;1.98;;;29.80;48.20;;;;;;5035044;28;20693;-56
2022/08/14 09:55:45;;;;;;;1.98;1.85;;;29.90;48.30;;;;;;5034898;28;20268;-57
2022/08/14 09:58:14;;;;;;;2.55;2.15;;;30.00;48.10;;;;;;5034718;28;20213;-57
2022/08/14 10:00:46;;;;;;;2.67;2.10;;;30.30;48.00;;;;;;5034769;28;20213;-57
2022/08/14 10:03:24;;;;;;;1.90;1.80;;;30.30;48.00;;;;;;5035001;28;20327;-57
2022/08/14 10:06:04;;;;;;;2.03;1.90;;;30.30;48.00;;;;;;5034796;28;20272;-57
2022/08/14 10:08:42;;;;;;;4.25;2.30;;;30.40;47.40;;;;;;5034723;28;20213;-57
2022/08/14 10:11:18;;;;;;;2.28;2.03;;;30.60;47.30;;;;;;5034699;28;20249;-57
2022/08/14 10:13:46;;;;;;;2.10;1.90;;;30.70;46.80;;;;;;5034575;28;20233;-57
2022/08/14 10:16:13;;;;;;;2.25;2.03;;;30.70;46.90;;;;;;5034628;28;20237;-57
2022/08/14 10:18:40;;;;;;;5.80;2.08;;;30.90;46.90;;;;;;5035391;28;20268;-57
2022/08/14 10:21:16;;;;;;;2.65;2.17;;;30.70;46.60;;;;;;5035046;28;20210;-57
2022/08/14 10:23:48;;;;;;;2.30;2.00;;;30.70;46.20;;;;;;5034603;28;20233;-57
2022/08/14 10:26:17;;;;;;;2.33;2.00;;;30.50;46.80;;;;;;5034587;28;20244;-57
2022/08/14 10:28:48;;;;;;;2.38;2.17;;;30.50;46.80;;;;;;5034553;28;20694;-57
2022/08/14 10:31:20;;;;;;;2.70;2.30;;;30.50;46.60;;;;;;5036563;28;20224;-60
2022/08/14 10:33:59;;;;;;;2.65;1.98;;;30.60;46.70;;;;;;5053021;28;20229;-59
2022/08/14 10:36:31;;;;;;;4.07;2.10;;;30.50;46.90;;;;;;5013252;28;20214;-59
2022/08/14 10:39:00;;;;;;;2.40;2.20;;;30.50;46.60;;;;;;5013659;28;20239;-60
2022/08/14 10:41:38;;;;;;;3.53;2.30;;;30.50;46.70;;;;;;5018220;28;20581;-60
2022/08/14 10:44:08;;;;;;;3.47;2.00;;;30.70;46.30;;;;;;5033474;28;20644;-58
2022/08/14 10:46:41;;;;;;;3.28;2.10;;;30.70;46.30;;;;;;5032432;28;20272;-57
2022/08/14 10:49:17;;;;;;;3.35;2.22;;;30.80;46.40;;;;;;5033754;28;20214;-59
2022/08/14 10:52:03;;;;;;;4.00;2.20;;;30.90;46.30;;;;;;5034098;28;20213;-58
2022/08/14 10:54:36;;;;;;;3.25;2.25;;;31.00;45.90;;;;;;5033913;28;20226;-57
2022/08/14 10:57:20;;;;;;;3.80;2.70;;;31.10;45.90;;;;;;5034030;28;20670;-58
2022/08/14 10:59:50;;;;;;;3.22;2.10;;;31.10;45.70;;;;;;5034310;28;20256;-61
2022/08/14 11:02:28;;;;;;;3.42;2.17;;;31.20;45.50;;;;;;5034407;28;20222;-59
2022/08/14 11:05:04;;;;;;;5.82;2.38;;;31.30;45.50;;;;;;5033706;28;20271;-61
2022/08/14 11:07:33;;;;;;;5.10;2.63;;;31.40;45.70;;;;;;5034198;28;20216;-60
2022/08/14 11:10:05;;;;;;;3.35;2.60;;;31.50;45.60;;;;;;5034736;28;20260;-59
2022/08/14 11:12:46;;;;;;;3.13;2.85;;;31.60;45.30;;;;;;5035476;28;20570;-61
2022/08/14 11:15:15;;;;;;;2.60;2.40;;;31.80;45.20;;;;;;5034632;28;20213;-58
2022/08/14 11:17:44;;;;;;;6.43;2.40;;;31.90;45.10;;;;;;5033431;28;20233;-59
2022/08/14 11:20:12;;;;;;;3.55;2.30;;;31.80;45.00;;;;;;5034240;28;20273;-58
2022/08/14 11:22:41;;;;;;;3.17;2.08;;;31.80;44.90;;;;;;5033846;28;20226;-60
2022/08/14 11:25:10;;;;;;;2.50;2.30;;;31.80;45.40;;;;;;5033746;28;20847;-59
2022/08/14 11:27:40;;;;;;;4.68;2.60;;;31.60;45.50;;;;;;5033914;28;20218;-59
2022/08/14 11:30:09;;;;;;;3.08;2.30;;;31.80;45.40;;;;;;5034313;28;20210;-60
2022/08/14 11:32:37;;;;;;;2.75;2.53;;;31.90;45.00;;;;;;5035551;28;20580;-59
2022/08/14 11:35:05;;;;;;;3.63;2.28;;;32.00;44.60;;;;;;5034930;28;20222;-60
2022/08/14 11:37:33;;;;;;;3.90;2.30;;;31.90;44.80;;;;;;5034555;28;20268;-60
2022/08/14 11:40:02;;;;;;;2.72;2.42;;;31.90;44.90;;;;;;5034973;28;20206;-62
2022/08/14 11:42:31;;;;;;;2.33;2.00;;;31.80;45.20;;;;;;5034251;28;20859;-58
2022/08/14 11:45:00;;;;;;;2.90;2.45;;;31.70;44.40;;;;;;5033790;28;20330;-58
2022/08/14 11:47:27;;;;;;;2.30;2.10;;;31.80;44.20;;;;;;5033989;28;20217;-58
2022/08/14 11:49:54;;;;;;;3.58;2.10;;;31.90;44.20;;;;;;5034105;28;20210;-58
2022/08/14 11:52:21;;;;;;;9.77;2.70;;;31.90;44.20;;;;;;5034082;28;20244;-59
2022/08/14 11:54:57;;;;;;;2.42;2.22;;;32.00;44.30;;;;;;5033961;28;20328;-58
2022/08/14 11:57:26;;;;;;;2.95;2.40;;;32.10;44.30;;;;;;5033483;28;20210;-59
2022/08/14 12:00:02;;;;;;;2.90;2.55;;;32.00;43.70;;;;;;5034231;28;20221;-58
2022/08/14 12:02:29;;;;;;;2.85;2.15;;;32.20;43.40;;;;;;5033789;28;20651;-58
2022/08/14 12:04:56;;;;;;;2.67;2.20;;;32.20;40.80;;;;;;5033633;28;20249;-59
2022/08/14 12:07:23;;;;;;;2.47;2.00;;;32.30;41.50;;;;;;5032860;28;20216;-60
2022/08/14 12:09:54;;;;;;;3.65;2.33;;;32.30;41.90;;;;;;5033077;28;20211;-58
2022/08/14 12:12:23;;;;;;;2.97;2.40;;;32.40;41.40;;;;;;5033082;28;20670;-58
2022/08/14 12:14:55;;;;;;;4.93;2.50;;;32.40;41.90;;;;;;5032890;28;20225;-58
2022/08/14 12:17:23;;;;;;;2.70;2.30;;;32.40;42.50;;;;;;5032720;28;20210;-58
2022/08/14 12:19:54;;;;;;;2.88;2.50;;;32.40;42.30;;;;;;5032669;28;20705;-58
2022/08/14 12:22:35;;;;;;;3.50;2.40;;;32.40;42.20;;;;;;5032598;28;20210;-58
2022/08/14 12:25:04;;;;;;;2.92;2.47;;;32.30;42.80;;;;;;5032144;28;20290;-59
2022/08/14 12:27:39;;;;;;;3.03;2.50;;;32.20;43.10;;;;;;5032703;28;20320;-58
2022/08/14 12:30:08;;;;;;;2.85;2.22;;;32.20;43.00;;;;;;5032099;28;20646;-58
2022/08/14 12:32:40;;;;;;;3.80;2.40;;;32.40;42.70;;;;;;5032308;28;20198;-61
2022/08/14 12:35:08;;;;;;;3.03;2.35;;;32.50;42.80;;;;;;5032142;28;20234;-58
2022/08/14 12:37:36;;;;;;;4.85;2.53;;;32.60;42.40;;;;;;5031491;28;20285;-58
2022/08/14 12:40:14;;;;;;;2.88;2.30;;;32.80;42.20;;;;;;5031271;28;20628;-58
2022/08/14 12:42:41;;;;;;;3.25;2.45;;;32.80;41.80;;;;;;5031049;28;20600;-58
2022/08/14 12:45:12;;;;;;;4.68;2.42;;;32.80;42.10;;;;;;5031786;28;20262;-58
2022/08/14 12:47:39;;;;;;;3.28;2.22;;;32.80;42.10;;;;;;5031973;28;20209;-58
2022/08/14 12:50:08;;;;;;;3.22;2.40;;;32.70;42.30;;;;;;5032270;28;20252;-57
2022/08/14 12:52:39;;;;;;;2.60;2.40;;;32.60;41.90;;;;;;5031879;28;20210;-59
2022/08/14 12:55:09;;;;;;;7.05;2.35;;;32.40;41.50;;;;;;5032114;28;20226;-59
2022/08/14 12:57:40;;;;;;;2.63;2.08;;;32.60;41.20;;;;;;5031947;28;20666;-59
2022/08/14 13:00:16;;;;;;;3.95;2.65;;;32.70;41.40;;;;;;5031733;28;20210;-56
2022/08/14 13:02:43;;;;;;;2.60;2.40;;;32.50;41.90;;;;;;5031933;28;20218;-57
2022/08/14 13:05:13;;;;;;;4.43;2.42;;;32.40;42.40;;;;;;5031437;28;20218;-58
2022/08/14 13:07:41;;;;;;;2.88;2.67;;;32.50;42.60;;;;;;5031118;28;20210;-58
2022/08/14 13:10:13;;;;;;;2.40;2.17;;;32.40;42.60;;;;;;5035354;28;20226;-58
2022/08/14 13:12:40;;;;;;;2.42;2.22;;;32.50;42.80;;;;;;5035479;28;20665;-59